sensor_id;sensor_type;location;lat;lon;timestamp;pressure;altitude;pressure_sealevel;temperature;humidity
47588;BME280;34356;45.788;12.046;2022-07-29T00:01:22;100057.82;;;28.96;29.65
47588;BME280;34356;45.788;12.046;2022-07-29T00:03:50;100064.72;;;28.64;29.59
47588;BME280;34356;45.788;12.046;2022-07-29T00:06:17;100060.75;;;28.87;29.57
47588;BME280;34356;45.788;12.046;2022-07-29T00:08:44;100053.72;;;28.86;29.66
47588;BME280;34356;45.788;12.046;2022-07-29T00:11:11;100058.59;;;29.28;29.87
47588;BME280;34356;45.788;12.046;2022-07-29T00:13:39;100054.37;;;28.84;29.95
47588;BME280;34356;45.788;12.046;2022-07-29T00:16:06;100047.86;;;29.09;30.00
47588;BME280;34356;45.788;12.046;2022-07-29T00:18:33;100042.83;;;28.81;30.44
47588;BME280;34356;45.788;12.046;2022-07-29T00:21:00;100038.16;;;29.09;30.63
47588;BME280;34356;45.788;12.046;2022-07-29T00:23:27;100038.97;;;28.76;30.90
47588;BME280;34356;45.788;12.046;2022-07-29T00:25:54;100036.38;;;28.87;30.96
47588;BME280;34356;45.788;12.046;2022-07-29T00:28:21;100032.13;;;28.77;31.08
47588;BME280;34356;45.788;12.046;2022-07-29T00:30:48;100035.66;;;28.73;31.18
47588;BME280;34356;45.788;12.046;2022-07-29T00:33:15;100028.28;;;28.67;31.40
47588;BME280;34356;45.788;12.046;2022-07-29T00:35:42;100035.15;;;28.52;31.56
47588;BME280;34356;45.788;12.046;2022-07-29T00:38:09;100029.77;;;28.39;31.72
47588;BME280;34356;45.788;12.046;2022-07-29T00:40:36;100028.90;;;28.75;32.14
47588;BME280;34356;45.788;12.046;2022-07-29T00:43:04;100027.98;;;28.43;32.16
47588;BME280;34356;45.788;12.046;2022-07-29T00:45:32;100022.98;;;28.28;32.38
47588;BME280;34356;45.788;12.046;2022-07-29T00:47:59;100024.16;;;27.85;32.72
47588;BME280;34356;45.788;12.046;2022-07-29T00:50:27;100013.80;;;28.15;32.91
47588;BME280;34356;45.788;12.046;2022-07-29T00:52:55;100005.69;;;28.05;33.04
47588;BME280;34356;45.788;12.046;2022-07-29T00:55:22;99990.50;;;27.93;33.05
47588;BME280;34356;45.788;12.046;2022-07-29T00:57:49;99949.10;;;27.83;33.13
47588;BME280;34356;45.788;12.046;2022-07-29T01:00:20;99935.33;;;27.32;33.29
47588;BME280;34356;45.788;12.046;2022-07-29T01:02:48;99925.55;;;27.22;33.68
47588;BME280;34356;45.788;12.046;2022-07-29T01:05:17;99910.69;;;27.65;33.75
47588;BME280;34356;45.788;12.046;2022-07-29T01:07:46;99903.73;;;27.68;33.67
47588;BME280;34356;45.788;12.046;2022-07-29T01:10:15;99907.70;;;27.77;33.60
47588;BME280;34356;45.788;12.046;2022-07-29T01:12:44;99921.56;;;27.37;33.36
47588;BME280;34356;45.788;12.046;2022-07-29T01:15:13;99933.50;;;27.60;33.42
47588;BME280;34356;45.788;12.046;2022-07-29T01:17:44;99932.67;;;27.60;34.04
47588;BME280;34356;45.788;12.046;2022-07-29T01:20:20;99923.23;;;27.37;34.21
47588;BME280;34356;45.788;12.046;2022-07-29T01:23:08;99915.71;;;27.21;34.38
47588;BME280;34356;45.788;12.046;2022-07-29T01:25:49;99905.41;;;27.10;34.70
47588;BME280;34356;45.788;12.046;2022-07-29T01:28:51;99898.82;;;27.01;35.33
47588;BME280;34356;45.788;12.046;2022-07-29T01:31:25;99884.20;;;27.05;35.26
47588;BME280;34356;45.788;12.046;2022-07-29T01:33:58;99862.76;;;27.18;35.36
47588;BME280;34356;45.788;12.046;2022-07-29T01:36:31;99858.12;;;26.90;35.50
47588;BME280;34356;45.788;12.046;2022-07-29T01:39:05;99869.19;;;26.58;35.37
47588;BME280;34356;45.788;12.046;2022-07-29T01:41:35;99875.11;;;26.95;35.24
47588;BME280;34356;45.788;12.046;2022-07-29T01:44:12;99866.27;;;27.03;35.12
47588;BME280;34356;45.788;12.046;2022-07-29T01:46:49;99854.26;;;26.76;35.18
47588;BME280;34356;45.788;12.046;2022-07-29T01:49:21;99872.84;;;26.76;34.92
47588;BME280;34356;45.788;12.046;2022-07-29T01:51:52;99890.95;;;26.82;34.69
47588;BME280;34356;45.788;12.046;2022-07-29T01:54:29;99901.48;;;26.85;34.63
47588;BME280;34356;45.788;12.046;2022-07-29T01:56:59;99909.74;;;26.81;34.58
47588;BME280;34356;45.788;12.046;2022-07-29T01:59:29;99921.37;;;27.22;34.55
47588;BME280;34356;45.788;12.046;2022-07-29T02:01:58;99929.54;;;26.72;34.68
47588;BME280;34356;45.788;12.046;2022-07-29T02:04:27;99930.81;;;27.11;35.37
47588;BME280;34356;45.788;12.046;2022-07-29T02:07:01;99933.31;;;26.91;35.81
47588;BME280;34356;45.788;12.046;2022-07-29T02:09:29;99939.84;;;26.73;36.01
47588;BME280;34356;45.788;12.046;2022-07-29T02:12:00;99940.43;;;26.35;36.14
47588;BME280;34356;45.788;12.046;2022-07-29T02:14:36;99944.43;;;26.46;36.46
47588;BME280;34356;45.788;12.046;2022-07-29T02:17:04;99941.11;;;26.36;36.60
47588;BME280;34356;45.788;12.046;2022-07-29T02:19:33;99942.89;;;26.11;36.42
47588;BME280;34356;45.788;12.046;2022-07-29T02:22:01;99944.41;;;26.34;36.21
47588;BME280;34356;45.788;12.046;2022-07-29T02:24:30;99942.79;;;26.05;36.24
47588;BME280;34356;45.788;12.046;2022-07-29T02:26:59;99938.29;;;26.19;36.39
47588;BME280;34356;45.788;12.046;2022-07-29T02:29:28;99939.95;;;25.89;36.27
47588;BME280;34356;45.788;12.046;2022-07-29T02:31:58;99941.85;;;26.08;36.17
47588;BME280;34356;45.788;12.046;2022-07-29T02:34:25;99944.40;;;26.01;36.09
47588;BME280;34356;45.788;12.046;2022-07-29T02:36:55;99947.36;;;25.95;36.10
47588;BME280;34356;45.788;12.046;2022-07-29T02:39:24;99940.81;;;25.97;36.08
47588;BME280;34356;45.788;12.046;2022-07-29T02:41:58;99933.97;;;25.95;36.02
47588;BME280;34356;45.788;12.046;2022-07-29T02:44:28;99938.80;;;25.91;36.03
47588;BME280;34356;45.788;12.046;2022-07-29T02:47:10;99936.34;;;25.90;35.92
47588;BME280;34356;45.788;12.046;2022-07-29T02:49:41;99934.65;;;25.89;36.08
47588;BME280;34356;45.788;12.046;2022-07-29T02:52:16;99936.35;;;25.87;36.05
47588;BME280;34356;45.788;12.046;2022-07-29T02:54:50;99941.29;;;26.10;36.07
47588;BME280;34356;45.788;12.046;2022-07-29T02:57:22;99939.56;;;25.84;36.21
47588;BME280;34356;45.788;12.046;2022-07-29T02:59:53;99935.16;;;25.96;36.37
47588;BME280;34356;45.788;12.046;2022-07-29T03:02:25;99931.46;;;25.96;36.26
47588;BME280;34356;45.788;12.046;2022-07-29T03:04:55;99938.76;;;25.76;36.16
47588;BME280;34356;45.788;12.046;2022-07-29T03:07:25;99941.18;;;25.95;36.58
47588;BME280;34356;45.788;12.046;2022-07-29T03:09:53;99935.60;;;25.87;36.68
47588;BME280;34356;45.788;12.046;2022-07-29T03:12:21;99937.00;;;25.79;37.01
47588;BME280;34356;45.788;12.046;2022-07-29T03:14:49;99937.94;;;25.81;37.37
47588;BME280;34356;45.788;12.046;2022-07-29T03:17:17;99936.46;;;25.63;37.69
47588;BME280;34356;45.788;12.046;2022-07-29T03:19:45;99936.43;;;25.67;37.84
47588;BME280;34356;45.788;12.046;2022-07-29T03:22:12;99944.60;;;25.32;38.10
47588;BME280;34356;45.788;12.046;2022-07-29T03:24:40;99937.58;;;25.48;38.07
47588;BME280;34356;45.788;12.046;2022-07-29T03:27:07;99940.33;;;25.45;38.63
47588;BME280;34356;45.788;12.046;2022-07-29T03:29:34;99946.57;;;25.31;38.46
47588;BME280;34356;45.788;12.046;2022-07-29T03:32:05;99944.01;;;25.26;38.64
47588;BME280;34356;45.788;12.046;2022-07-29T03:34:33;99953.95;;;25.23;38.41
47588;BME280;34356;45.788;12.046;2022-07-29T03:37:01;99952.73;;;25.22;38.43
47588;BME280;34356;45.788;12.046;2022-07-29T03:39:31;99950.43;;;25.19;38.48
47588;BME280;34356;45.788;12.046;2022-07-29T03:42:01;99943.70;;;25.16;38.75
47588;BME280;34356;45.788;12.046;2022-07-29T03:44:29;99949.94;;;25.12;38.93
47588;BME280;34356;45.788;12.046;2022-07-29T03:46:59;99950.33;;;25.06;38.99
47588;BME280;34356;45.788;12.046;2022-07-29T03:49:28;99946.45;;;25.08;39.02
47588;BME280;34356;45.788;12.046;2022-07-29T03:51:56;99952.07;;;25.07;38.85
47588;BME280;34356;45.788;12.046;2022-07-29T03:54:24;99948.06;;;24.81;38.69
47588;BME280;34356;45.788;12.046;2022-07-29T03:56:53;99938.16;;;24.80;39.28
47588;BME280;34356;45.788;12.046;2022-07-29T03:59:22;99943.51;;;24.99;39.07
47588;BME280;34356;45.788;12.046;2022-07-29T04:01:50;99945.04;;;24.98;39.02
47588;BME280;34356;45.788;12.046;2022-07-29T04:04:17;99947.27;;;24.94;39.01
47588;BME280;34356;45.788;12.046;2022-07-29T04:06:46;99943.63;;;24.93;39.11
47588;BME280;34356;45.788;12.046;2022-07-29T04:09:14;99938.02;;;24.96;39.18
47588;BME280;34356;45.788;12.046;2022-07-29T04:11:42;99940.85;;;24.84;39.32
47588;BME280;34356;45.788;12.046;2022-07-29T04:14:09;99943.80;;;24.82;39.35
47588;BME280;34356;45.788;12.046;2022-07-29T04:16:36;99948.25;;;24.79;39.30
47588;BME280;34356;45.788;12.046;2022-07-29T04:19:03;99953.65;;;24.80;39.15
47588;BME280;34356;45.788;12.046;2022-07-29T04:21:30;99948.15;;;24.83;39.14
47588;BME280;34356;45.788;12.046;2022-07-29T04:23:57;99958.28;;;24.81;39.15
47588;BME280;34356;45.788;12.046;2022-07-29T04:26:24;99962.17;;;24.77;39.14
47588;BME280;34356;45.788;12.046;2022-07-29T04:28:52;99969.54;;;24.70;39.42
47588;BME280;34356;45.788;12.046;2022-07-29T04:31:19;99974.23;;;24.63;39.34
47588;BME280;34356;45.788;12.046;2022-07-29T04:33:46;99977.56;;;24.83;39.41
47588;BME280;34356;45.788;12.046;2022-07-29T04:36:13;99969.30;;;24.82;39.36
47588;BME280;34356;45.788;12.046;2022-07-29T04:38:40;99971.23;;;24.57;39.44
47588;BME280;34356;45.788;12.046;2022-07-29T04:41:07;99978.89;;;24.78;39.40
47588;BME280;34356;45.788;12.046;2022-07-29T04:43:34;99974.11;;;24.79;39.30
47588;BME280;34356;45.788;12.046;2022-07-29T04:46:02;99974.47;;;24.63;39.52
47588;BME280;34356;45.788;12.046;2022-07-29T04:48:29;99976.28;;;24.55;39.56
47588;BME280;34356;45.788;12.046;2022-07-29T04:50:57;99960.70;;;24.62;39.41
47588;BME280;34356;45.788;12.046;2022-07-29T04:53:24;99968.66;;;24.65;39.53
47588;BME280;34356;45.788;12.046;2022-07-29T04:55:52;99968.84;;;25.10;39.50
47588;BME280;34356;45.788;12.046;2022-07-29T04:58:19;99971.92;;;24.65;39.42
47588;BME280;34356;45.788;12.046;2022-07-29T05:00:45;99965.99;;;24.67;39.28
47588;BME280;34356;45.788;12.046;2022-07-29T05:03:13;99965.43;;;24.75;39.21
47588;BME280;34356;45.788;12.046;2022-07-29T05:05:40;99964.98;;;24.92;39.18
47588;BME280;34356;45.788;12.046;2022-07-29T05:08:07;99969.79;;;25.14;39.03
47588;BME280;34356;45.788;12.046;2022-07-29T05:10:35;99971.87;;;25.23;38.96
47588;BME280;34356;45.788;12.046;2022-07-29T05:13:02;99972.14;;;25.01;38.98
47588;BME280;34356;45.788;12.046;2022-07-29T05:15:29;99974.14;;;25.04;38.91
47588;BME280;34356;45.788;12.046;2022-07-29T05:17:57;99982.12;;;25.08;38.85
47588;BME280;34356;45.788;12.046;2022-07-29T05:20:24;99984.70;;;25.14;38.78
47588;BME280;34356;45.788;12.046;2022-07-29T05:22:51;99989.17;;;25.16;38.75
47588;BME280;34356;45.788;12.046;2022-07-29T05:25:18;99991.37;;;25.01;38.61
47588;BME280;34356;45.788;12.046;2022-07-29T05:27:45;99992.52;;;25.20;38.42
47588;BME280;34356;45.788;12.046;2022-07-29T05:30:12;99998.36;;;25.30;38.26
47588;BME280;34356;45.788;12.046;2022-07-29T05:32:40;99998.23;;;25.35;38.18
47588;BME280;34356;45.788;12.046;2022-07-29T05:35:08;100002.61;;;25.47;38.06
47588;BME280;34356;45.788;12.046;2022-07-29T05:37:35;100000.34;;;25.54;37.92
47588;BME280;34356;45.788;12.046;2022-07-29T05:40:03;99996.13;;;25.92;37.87
47588;BME280;34356;45.788;12.046;2022-07-29T05:42:31;99994.74;;;25.65;37.82
47588;BME280;34356;45.788;12.046;2022-07-29T05:44:58;99993.69;;;25.52;37.74
47588;BME280;34356;45.788;12.046;2022-07-29T05:47:25;99989.06;;;25.62;37.64
47588;BME280;34356;45.788;12.046;2022-07-29T05:49:52;99994.89;;;25.86;37.66
47588;BME280;34356;45.788;12.046;2022-07-29T05:52:20;99999.45;;;25.96;37.46
47588;BME280;34356;45.788;12.046;2022-07-29T05:54:47;100001.19;;;25.75;37.39
47588;BME280;34356;45.788;12.046;2022-07-29T05:57:17;100006.04;;;25.75;37.39
47588;BME280;34356;45.788;12.046;2022-07-29T05:59:45;100005.56;;;25.79;37.37
47588;BME280;34356;45.788;12.046;2022-07-29T06:02:12;100012.05;;;26.11;37.24
47588;BME280;34356;45.788;12.046;2022-07-29T06:04:39;100013.77;;;26.18;37.14
47588;BME280;34356;45.788;12.046;2022-07-29T06:07:06;100012.33;;;26.04;37.06
47588;BME280;34356;45.788;12.046;2022-07-29T06:09:34;100012.45;;;26.06;36.99
47588;BME280;34356;45.788;12.046;2022-07-29T06:12:02;100016.08;;;26.10;36.98
47588;BME280;34356;45.788;12.046;2022-07-29T06:14:30;100019.07;;;26.22;36.85
47588;BME280;34356;45.788;12.046;2022-07-29T06:16:57;100019.59;;;26.14;36.68
47588;BME280;34356;45.788;12.046;2022-07-29T06:19:24;100026.02;;;26.49;36.51
47588;BME280;34356;45.788;12.046;2022-07-29T06:21:52;100026.69;;;26.54;36.44
47588;BME280;34356;45.788;12.046;2022-07-29T06:24:19;100029.29;;;26.62;36.28
47588;BME280;34356;45.788;12.046;2022-07-29T06:26:46;100027.51;;;26.65;36.19
47588;BME280;34356;45.788;12.046;2022-07-29T06:29:13;100025.77;;;26.69;36.14
47588;BME280;34356;45.788;12.046;2022-07-29T06:31:40;100030.10;;;26.83;35.95
47588;BME280;34356;45.788;12.046;2022-07-29T06:34:07;100034.27;;;26.41;35.75
47588;BME280;34356;45.788;12.046;2022-07-29T06:36:35;100031.26;;;26.70;35.62
47588;BME280;34356;45.788;12.046;2022-07-29T06:39:04;100033.91;;;26.51;35.54
47588;BME280;34356;45.788;12.046;2022-07-29T06:41:32;100044.88;;;27.12;35.44
47588;BME280;34356;45.788;12.046;2022-07-29T06:44:00;100042.77;;;26.95;35.33
47588;BME280;34356;45.788;12.046;2022-07-29T06:46:27;100036.55;;;26.77;35.24
47588;BME280;34356;45.788;12.046;2022-07-29T06:48:54;100031.28;;;26.87;34.99
47588;BME280;34356;45.788;12.046;2022-07-29T06:51:22;100029.87;;;26.93;34.90
47588;BME280;34356;45.788;12.046;2022-07-29T06:53:50;100029.39;;;27.00;34.69
47588;BME280;34356;45.788;12.046;2022-07-29T06:56:18;100029.08;;;27.32;34.63
47588;BME280;34356;45.788;12.046;2022-07-29T06:58:45;100030.86;;;27.09;34.55
47588;BME280;34356;45.788;12.046;2022-07-29T07:01:13;100026.63;;;27.17;34.46
47588;BME280;34356;45.788;12.046;2022-07-29T07:03:40;100023.49;;;27.24;34.44
47588;BME280;34356;45.788;12.046;2022-07-29T07:06:07;100026.93;;;27.36;34.31
47588;BME280;34356;45.788;12.046;2022-07-29T07:08:34;100024.00;;;27.49;34.17
47588;BME280;34356;45.788;12.046;2022-07-29T07:11:01;100025.36;;;27.59;34.02
47588;BME280;34356;45.788;12.046;2022-07-29T07:13:28;100026.23;;;27.61;33.98
47588;BME280;34356;45.788;12.046;2022-07-29T07:15:54;100026.70;;;27.67;34.04
47588;BME280;34356;45.788;12.046;2022-07-29T07:18:21;100031.06;;;27.76;33.97
47588;BME280;34356;45.788;12.046;2022-07-29T07:20:48;100033.95;;;27.66;33.83
47588;BME280;34356;45.788;12.046;2022-07-29T07:23:16;100032.46;;;27.75;33.59
47588;BME280;34356;45.788;12.046;2022-07-29T07:25:43;100035.28;;;27.80;33.49
47588;BME280;34356;45.788;12.046;2022-07-29T07:28:11;100033.73;;;28.07;33.46
47588;BME280;34356;45.788;12.046;2022-07-29T07:30:39;100030.32;;;27.91;33.30
47588;BME280;34356;45.788;12.046;2022-07-29T07:33:06;100030.33;;;27.97;33.20
47588;BME280;34356;45.788;12.046;2022-07-29T07:35:34;100027.82;;;28.23;33.08
47588;BME280;34356;45.788;12.046;2022-07-29T07:38:02;100027.36;;;28.10;32.98
47588;BME280;34356;45.788;12.046;2022-07-29T07:40:28;100019.64;;;28.18;32.96
47588;BME280;34356;45.788;12.046;2022-07-29T07:42:55;100015.33;;;28.31;32.84
47588;BME280;34356;45.788;12.046;2022-07-29T07:45:23;100015.40;;;28.15;32.65
47588;BME280;34356;45.788;12.046;2022-07-29T07:47:50;100017.64;;;28.23;32.56
47588;BME280;34356;45.788;12.046;2022-07-29T07:50:17;100019.45;;;28.31;32.41
47588;BME280;34356;45.788;12.046;2022-07-29T07:52:49;100019.87;;;28.38;32.32
47588;BME280;34356;45.788;12.046;2022-07-29T07:55:17;100022.23;;;28.48;32.28
47588;BME280;34356;45.788;12.046;2022-07-29T07:57:45;100022.93;;;28.55;32.14
47588;BME280;34356;45.788;12.046;2022-07-29T08:00:15;100021.46;;;28.63;32.07
47588;BME280;34356;45.788;12.046;2022-07-29T08:02:43;100023.19;;;28.52;31.91
47588;BME280;34356;45.788;12.046;2022-07-29T08:05:12;100018.31;;;28.87;31.79
47588;BME280;34356;45.788;12.046;2022-07-29T08:07:39;100014.94;;;28.74;31.61
47588;BME280;34356;45.788;12.046;2022-07-29T08:10:06;100011.76;;;28.96;31.56
47588;BME280;34356;45.788;12.046;2022-07-29T08:12:34;100012.96;;;29.03;31.54
47588;BME280;34356;45.788;12.046;2022-07-29T08:15:00;100014.75;;;28.87;31.42
47588;BME280;34356;45.788;12.046;2022-07-29T08:17:27;100018.59;;;28.80;31.20
47588;BME280;34356;45.788;12.046;2022-07-29T08:19:54;100015.80;;;28.92;31.16
47588;BME280;34356;45.788;12.046;2022-07-29T08:22:21;100015.46;;;29.46;31.18
47588;BME280;34356;45.788;12.046;2022-07-29T08:24:48;100015.97;;;29.08;30.94
47588;BME280;34356;45.788;12.046;2022-07-29T08:27:16;100017.58;;;29.14;30.96
47588;BME280;34356;45.788;12.046;2022-07-29T08:29:43;100022.03;;;29.23;30.80
47588;BME280;34356;45.788;12.046;2022-07-29T08:32:10;100018.93;;;29.10;30.62
47588;BME280;34356;45.788;12.046;2022-07-29T08:34:37;100018.80;;;29.48;30.52
47588;BME280;34356;45.788;12.046;2022-07-29T08:37:04;100018.21;;;29.60;30.29
47588;BME280;34356;45.788;12.046;2022-07-29T08:39:31;100012.87;;;29.71;30.28
47588;BME280;34356;45.788;12.046;2022-07-29T08:41:59;100003.70;;;29.80;29.82
47588;BME280;34356;45.788;12.046;2022-07-29T08:44:26;100004.17;;;29.86;29.91
47588;BME280;34356;45.788;12.046;2022-07-29T08:46:53;100001.45;;;29.98;29.80
47588;BME280;34356;45.788;12.046;2022-07-29T08:49:21;100002.66;;;29.84;29.55
47588;BME280;34356;45.788;12.046;2022-07-29T08:51:49;100008.28;;;30.03;29.38
47588;BME280;34356;45.788;12.046;2022-07-29T08:54:18;100009.90;;;30.03;29.10
47588;BME280;34356;45.788;12.046;2022-07-29T08:56:51;100010.69;;;30.42;28.78
47588;BME280;34356;45.788;12.046;2022-07-29T08:59:19;100007.91;;;30.39;28.59
47588;BME280;34356;45.788;12.046;2022-07-29T09:01:48;100007.16;;;30.57;28.17
47588;BME280;34356;45.788;12.046;2022-07-29T09:04:18;100008.06;;;30.74;28.01
47588;BME280;34356;45.788;12.046;2022-07-29T09:06:49;100003.73;;;30.86;27.71
47588;BME280;34356;45.788;12.046;2022-07-29T09:09:18;99996.91;;;30.97;27.48
47588;BME280;34356;45.788;12.046;2022-07-29T09:11:45;99992.64;;;31.03;27.45
47588;BME280;34356;45.788;12.046;2022-07-29T09:14:13;99990.47;;;31.22;27.04
47588;BME280;34356;45.788;12.046;2022-07-29T09:16:47;99991.38;;;30.98;26.71
47588;BME280;34356;45.788;12.046;2022-07-29T09:19:26;99986.53;;;31.01;26.79
47588;BME280;34356;45.788;12.046;2022-07-29T09:21:57;99987.06;;;31.12;26.90
47588;BME280;34356;45.788;12.046;2022-07-29T09:24:26;99987.82;;;31.18;26.97
47588;BME280;34356;45.788;12.046;2022-07-29T09:26:54;99983.10;;;30.88;26.71
47588;BME280;34356;45.788;12.046;2022-07-29T09:29:23;99985.15;;;30.71;26.71
47588;BME280;34356;45.788;12.046;2022-07-29T09:31:51;99984.62;;;31.00;26.71
47588;BME280;34356;45.788;12.046;2022-07-29T09:34:24;99983.33;;;31.36;26.68
47588;BME280;34356;45.788;12.046;2022-07-29T09:36:53;99979.86;;;31.17;26.64
47588;BME280;34356;45.788;12.046;2022-07-29T09:39:29;99979.49;;;31.02;26.59
47588;BME280;34356;45.788;12.046;2022-07-29T09:41:59;99978.71;;;31.11;26.76
47588;BME280;34356;45.788;12.046;2022-07-29T09:44:26;99976.53;;;31.07;26.64
47588;BME280;34356;45.788;12.046;2022-07-29T09:47:07;99972.59;;;31.30;26.76
47588;BME280;34356;45.788;12.046;2022-07-29T09:49:49;99968.85;;;31.33;26.83
47588;BME280;34356;45.788;12.046;2022-07-29T09:52:17;99969.61;;;31.32;26.76
47588;BME280;34356;45.788;12.046;2022-07-29T09:54:45;99968.71;;;31.60;26.81
47588;BME280;34356;45.788;12.046;2022-07-29T09:57:23;99967.04;;;31.13;26.73
47588;BME280;34356;45.788;12.046;2022-07-29T09:59:58;99966.02;;;31.16;26.74
47588;BME280;34356;45.788;12.046;2022-07-29T10:02:30;99969.84;;;31.19;26.58
47588;BME280;34356;45.788;12.046;2022-07-29T10:04:59;99969.70;;;31.69;26.60
47588;BME280;34356;45.788;12.046;2022-07-29T10:07:26;99964.53;;;31.73;26.52
47588;BME280;34356;45.788;12.046;2022-07-29T10:10:10;99964.40;;;31.28;26.40
47588;BME280;34356;45.788;12.046;2022-07-29T10:12:49;99963.59;;;31.80;26.42
47588;BME280;34356;45.788;12.046;2022-07-29T10:15:16;99962.77;;;31.62;26.40
47588;BME280;34356;45.788;12.046;2022-07-29T10:17:45;99964.85;;;31.72;26.36
47588;BME280;34356;45.788;12.046;2022-07-29T10:20:12;99967.23;;;31.59;26.25
47588;BME280;34356;45.788;12.046;2022-07-29T10:22:40;99964.87;;;31.63;26.24
47588;BME280;34356;45.788;12.046;2022-07-29T10:25:08;99966.99;;;31.67;26.18
47588;BME280;34356;45.788;12.046;2022-07-29T10:27:36;99966.64;;;31.72;26.09
47588;BME280;34356;45.788;12.046;2022-07-29T10:30:05;99969.14;;;31.57;26.16
47588;BME280;34356;45.788;12.046;2022-07-29T10:32:39;99967.80;;;32.30;25.97
47588;BME280;34356;45.788;12.046;2022-07-29T10:35:21;99957.44;;;31.86;25.95
47588;BME280;34356;45.788;12.046;2022-07-29T10:38:04;99956.10;;;31.90;25.89
47588;BME280;34356;45.788;12.046;2022-07-29T10:40:41;99948.11;;;31.95;25.84
47588;BME280;34356;45.788;12.046;2022-07-29T10:43:18;99943.86;;;31.80;25.87
47588;BME280;34356;45.788;12.046;2022-07-29T10:45:48;99937.42;;;31.86;25.76
47588;BME280;34356;45.788;12.046;2022-07-29T10:48:16;99936.77;;;31.96;25.74
47588;BME280;34356;45.788;12.046;2022-07-29T10:51:00;99933.24;;;32.25;25.46
47588;BME280;34356;45.788;12.046;2022-07-29T10:53:48;99935.09;;;32.27;25.53
47588;BME280;34356;45.788;12.046;2022-07-29T10:56:24;99930.12;;;32.10;25.48
47588;BME280;34356;45.788;12.046;2022-07-29T10:59:23;99930.49;;;32.38;25.38
47588;BME280;34356;45.788;12.046;2022-07-29T11:01:51;99929.52;;;31.95;25.33
47588;BME280;34356;45.788;12.046;2022-07-29T11:04:59;99934.79;;;32.30;25.29
47588;BME280;34356;45.788;12.046;2022-07-29T11:07:27;99936.20;;;32.39;25.14
47588;BME280;34356;45.788;12.046;2022-07-29T11:10:26;99934.66;;;32.43;25.22
47588;BME280;34356;45.788;12.046;2022-07-29T11:12:53;99931.35;;;32.68;25.20
47588;BME280;34356;45.788;12.046;2022-07-29T11:15:21;99929.55;;;32.49;25.23
47588;BME280;34356;45.788;12.046;2022-07-29T11:18:06;99922.18;;;32.48;25.17
47588;BME280;34356;45.788;12.046;2022-07-29T11:20:37;99917.57;;;32.69;25.26
47588;BME280;34356;45.788;12.046;2022-07-29T11:23:37;99922.99;;;32.73;25.20
47588;BME280;34356;45.788;12.046;2022-07-29T11:26:21;99916.86;;;32.62;25.20
47588;BME280;34356;45.788;12.046;2022-07-29T11:29:01;99913.47;;;32.75;25.17
47588;BME280;34356;45.788;12.046;2022-07-29T11:31:35;99914.90;;;32.85;24.93
47588;BME280;34356;45.788;12.046;2022-07-29T11:34:22;99911.59;;;32.93;24.86
47588;BME280;34356;45.788;12.046;2022-07-29T11:37:23;99906.92;;;32.82;24.86
47588;BME280;34356;45.788;12.046;2022-07-29T11:40:22;99908.80;;;33.00;24.43
47588;BME280;34356;45.788;12.046;2022-07-29T11:42:50;99902.83;;;33.12;24.23
47588;BME280;34356;45.788;12.046;2022-07-29T11:45:21;99900.79;;;33.23;24.16
47588;BME280;34356;45.788;12.046;2022-07-29T11:47:51;99900.49;;;33.33;24.08
47588;BME280;34356;45.788;12.046;2022-07-29T11:50:28;99904.73;;;33.00;24.09
47588;BME280;34356;45.788;12.046;2022-07-29T11:52:55;99906.20;;;33.12;24.04
47588;BME280;34356;45.788;12.046;2022-07-29T11:55:24;99908.63;;;33.37;23.88
47588;BME280;34356;45.788;12.046;2022-07-29T11:57:53;99899.66;;;33.20;23.84
47588;BME280;34356;45.788;12.046;2022-07-29T12:00:24;99902.15;;;33.75;23.72
47588;BME280;34356;45.788;12.046;2022-07-29T12:02:52;99902.01;;;33.86;23.67
47588;BME280;34356;45.788;12.046;2022-07-29T12:05:19;99898.47;;;33.68;23.65
47588;BME280;34356;45.788;12.046;2022-07-29T12:07:48;99893.99;;;33.57;23.54
47588;BME280;34356;45.788;12.046;2022-07-29T12:10:15;99888.05;;;33.74;23.52
47588;BME280;34356;45.788;12.046;2022-07-29T12:12:42;99885.69;;;33.91;23.47
47588;BME280;34356;45.788;12.046;2022-07-29T12:15:12;99885.46;;;34.27;23.48
47588;BME280;34356;45.788;12.046;2022-07-29T12:17:40;99886.79;;;34.12;23.56
47588;BME280;34356;45.788;12.046;2022-07-29T12:20:07;99884.91;;;34.15;23.61
47588;BME280;34356;45.788;12.046;2022-07-29T12:22:36;99884.45;;;34.16;23.57
47588;BME280;34356;45.788;12.046;2022-07-29T12:25:05;99878.28;;;34.16;23.48
47588;BME280;34356;45.788;12.046;2022-07-29T12:27:33;99876.83;;;34.17;23.37
47588;BME280;34356;45.788;12.046;2022-07-29T12:30:03;99878.59;;;34.26;23.38
47588;BME280;34356;45.788;12.046;2022-07-29T12:32:33;99878.86;;;34.15;23.35
47588;BME280;34356;45.788;12.046;2022-07-29T12:35:02;99877.61;;;34.61;23.29
47588;BME280;34356;45.788;12.046;2022-07-29T12:37:31;99868.25;;;34.79;23.24
47588;BME280;34356;45.788;12.046;2022-07-29T12:39:58;99875.50;;;34.73;23.14
47588;BME280;34356;45.788;12.046;2022-07-29T12:42:26;99875.82;;;34.67;23.02
47588;BME280;34356;45.788;12.046;2022-07-29T12:44:53;99877.92;;;34.98;23.00
47588;BME280;34356;45.788;12.046;2022-07-29T12:47:20;99874.93;;;34.84;22.90
47588;BME280;34356;45.788;12.046;2022-07-29T12:49:49;99870.21;;;35.14;22.82
47588;BME280;34356;45.788;12.046;2022-07-29T12:52:28;99871.01;;;35.04;22.75
47588;BME280;34356;45.788;12.046;2022-07-29T12:54:57;99868.38;;;35.18;22.67
47588;BME280;34356;45.788;12.046;2022-07-29T12:57:24;99860.58;;;35.24;22.58
47588;BME280;34356;45.788;12.046;2022-07-29T13:00:03;99857.48;;;35.58;22.55
47588;BME280;34356;45.788;12.046;2022-07-29T13:02:30;99860.34;;;35.56;22.32